Terminal Aerodrome Forecast
Issued by NWS Norman, OK

Home | Current Version | Previous Version | Text Only | Print | Product List | Glossary On
Versions: 1 2 3 4 5 6 7 8 9 10 11 12 13 14 15 16 17 18 19 20 21 22 23 24 25 26 27 28 29 30 31 32 33 34
000
FTUS44 KOUN 302320
TAFOKC
TAF
KOKC 302320Z 3100/3124 13010G15KT 6SM -RA SCT009 OVC025
      TEMPO 3100/3103 1SM -TSRA BKN015CB
     FM310300 02014KT P6SM OVC015
      TEMPO 3106/3110 OVC009
     FM311800 01011KT P6SM BKN035=

USA.gov is the U.S. government's official web portal to all federal, state and local government web resources and services.